Franklin, Tennessee
Current Conditions -  °F | °C
As of 6:53 PM on Friday 24 Oct 2014 (Local Time) from KBNA Reporting Station
Scattered Clouds Scattered Clouds  
Wind Chill: 63°   Ceiling: Unl
Heat Index: 63°   Visibility: 10mi
Dew Point: 45°   Wind: 3mph
Humidity: 52%   Direction: 330°NNW
Pressure: 30.08"   Gusts: NA
Location:  35.92°N, 86.87°W
Report Text: KBNA 242353Z 33003KT 10SM FEW150 SCT250 17/07 A3008 RMK AO2 SLP185 T01720072 10222 20172 53006
Loading
Personal Weather Stations






























Interactive Weather Map
Tropical Storm Tracking
New forecast layout! Learn more

10-Day Weather Forecast

Advertisements
Track Severe Weather on mobile